sensor_id;sensor_type;location;lat;lon;timestamp;temperature;humidity
55135;DHT22;41031;44.750;11.308;2023-12-07T00:00:05;3.10;97.50
55135;DHT22;41031;44.750;11.308;2023-12-07T00:02:32;3.20;97.50
55135;DHT22;41031;44.750;11.308;2023-12-07T00:04:59;3.10;97.50
55135;DHT22;41031;44.750;11.308;2023-12-07T00:07:26;3.10;97.60
55135;DHT22;41031;44.750;11.308;2023-12-07T00:09:53;3.10;97.60
55135;DHT22;41031;44.750;11.308;2023-12-07T00:12:20;3.10;97.60
55135;DHT22;41031;44.750;11.308;2023-12-07T00:14:48;3.10;97.60
55135;DHT22;41031;44.750;11.308;2023-12-07T00:17:15;3.10;97.80
55135;DHT22;41031;44.750;11.308;2023-12-07T00:19:42;3.10;97.50
55135;DHT22;41031;44.750;11.308;2023-12-07T00:22:09;3.10;97.60
55135;DHT22;41031;44.750;11.308;2023-12-07T00:24:36;3.10;97.60
55135;DHT22;41031;44.750;11.308;2023-12-07T00:27:03;3.10;97.60
55135;DHT22;41031;44.750;11.308;2023-12-07T00:29:32;3.10;97.60
55135;DHT22;41031;44.750;11.308;2023-12-07T00:31:59;3.10;97.60
55135;DHT22;41031;44.750;11.308;2023-12-07T00:34:26;3.10;97.60
55135;DHT22;41031;44.750;11.308;2023-12-07T00:36:53;3.10;97.60
55135;DHT22;41031;44.750;11.308;2023-12-07T00:39:21;3.00;97.50
55135;DHT22;41031;44.750;11.308;2023-12-07T00:41:48;3.00;97.50
55135;DHT22;41031;44.750;11.308;2023-12-07T00:44:15;3.00;97.50
55135;DHT22;41031;44.750;11.308;2023-12-07T00:46:42;3.00;97.50
55135;DHT22;41031;44.750;11.308;2023-12-07T00:49:10;3.00;97.50
55135;DHT22;41031;44.750;11.308;2023-12-07T00:51:37;3.00;97.50
55135;DHT22;41031;44.750;11.308;2023-12-07T00:54:04;3.00;97.60
55135;DHT22;41031;44.750;11.308;2023-12-07T00:56:31;2.90;97.60
55135;DHT22;41031;44.750;11.308;2023-12-07T00:58:58;2.90;97.60
55135;DHT22;41031;44.750;11.308;2023-12-07T01:01:25;2.90;97.60
55135;DHT22;41031;44.750;11.308;2023-12-07T01:03:52;2.90;97.60
55135;DHT22;41031;44.750;11.308;2023-12-07T01:06:19;2.90;97.60
55135;DHT22;41031;44.750;11.308;2023-12-07T01:08:46;2.90;97.60
55135;DHT22;41031;44.750;11.308;2023-12-07T01:11:14;2.80;97.50
55135;DHT22;41031;44.750;11.308;2023-12-07T01:13:41;2.80;97.60
55135;DHT22;41031;44.750;11.308;2023-12-07T01:16:08;2.80;97.50
55135;DHT22;41031;44.750;11.308;2023-12-07T01:18:35;2.70;97.40
55135;DHT22;41031;44.750;11.308;2023-12-07T01:21:02;2.70;97.50
55135;DHT22;41031;44.750;11.308;2023-12-07T01:23:30;2.60;97.50
55135;DHT22;41031;44.750;11.308;2023-12-07T01:25:57;2.60;97.60
55135;DHT22;41031;44.750;11.308;2023-12-07T01:28:24;2.60;97.60
55135;DHT22;41031;44.750;11.308;2023-12-07T01:30:51;2.60;97.70
55135;DHT22;41031;44.750;11.308;2023-12-07T01:33:18;2.60;97.70
55135;DHT22;41031;44.750;11.308;2023-12-07T01:35:46;2.60;97.90
55135;DHT22;41031;44.750;11.308;2023-12-07T01:38:13;2.50;97.60
55135;DHT22;41031;44.750;11.308;2023-12-07T01:40:40;2.40;97.50
55135;DHT22;41031;44.750;11.308;2023-12-07T01:43:09;2.40;97.50
55135;DHT22;41031;44.750;11.308;2023-12-07T01:45:36;2.40;97.50
55135;DHT22;41031;44.750;11.308;2023-12-07T01:48:04;2.40;97.50
55135;DHT22;41031;44.750;11.308;2023-12-07T01:50:32;2.30;97.40
55135;DHT22;41031;44.750;11.308;2023-12-07T01:53:02;2.30;97.50
55135;DHT22;41031;44.750;11.308;2023-12-07T01:55:33;2.20;97.60
55135;DHT22;41031;44.750;11.308;2023-12-07T01:58:00;2.30;97.70
55135;DHT22;41031;44.750;11.308;2023-12-07T02:00:27;2.30;97.80
55135;DHT22;41031;44.750;11.308;2023-12-07T02:02:55;2.30;97.80
55135;DHT22;41031;44.750;11.308;2023-12-07T02:05:22;2.30;97.80
55135;DHT22;41031;44.750;11.308;2023-12-07T02:07:50;2.30;97.80
55135;DHT22;41031;44.750;11.308;2023-12-07T02:10:18;2.30;97.90
55135;DHT22;41031;44.750;11.308;2023-12-07T02:12:47;2.30;97.90
55135;DHT22;41031;44.750;11.308;2023-12-07T02:15:14;2.30;97.90
55135;DHT22;41031;44.750;11.308;2023-12-07T02:20:44;2.40;98.00
55135;DHT22;41031;44.750;11.308;2023-12-07T02:23:17;2.40;98.00
55135;DHT22;41031;44.750;11.308;2023-12-07T02:26:03;2.40;98.00
55135;DHT22;41031;44.750;11.308;2023-12-07T02:28:30;2.40;97.90
55135;DHT22;41031;44.750;11.308;2023-12-07T02:30:58;2.40;98.00
55135;DHT22;41031;44.750;11.308;2023-12-07T02:33:25;2.40;98.00
55135;DHT22;41031;44.750;11.308;2023-12-07T02:35:52;2.40;98.00
55135;DHT22;41031;44.750;11.308;2023-12-07T02:38:21;2.40;98.00
55135;DHT22;41031;44.750;11.308;2023-12-07T02:40:49;2.40;98.00
55135;DHT22;41031;44.750;11.308;2023-12-07T02:43:18;2.40;98.00
55135;DHT22;41031;44.750;11.308;2023-12-07T02:45:45;2.40;98.00
55135;DHT22;41031;44.750;11.308;2023-12-07T02:48:12;2.40;98.00
55135;DHT22;41031;44.750;11.308;2023-12-07T02:50:39;2.40;97.90
55135;DHT22;41031;44.750;11.308;2023-12-07T02:53:06;2.40;98.00
55135;DHT22;41031;44.750;11.308;2023-12-07T02:55:33;2.40;98.00
55135;DHT22;41031;44.750;11.308;2023-12-07T02:58:01;2.40;97.90
55135;DHT22;41031;44.750;11.308;2023-12-07T03:00:28;2.40;97.90
55135;DHT22;41031;44.750;11.308;2023-12-07T03:02:55;2.30;97.80
55135;DHT22;41031;44.750;11.308;2023-12-07T03:05:22;2.30;97.80
55135;DHT22;41031;44.750;11.308;2023-12-07T03:07:50;2.30;97.80
55135;DHT22;41031;44.750;11.308;2023-12-07T03:10:17;2.30;97.80
55135;DHT22;41031;44.750;11.308;2023-12-07T03:12:44;2.30;97.90
55135;DHT22;41031;44.750;11.308;2023-12-07T03:15:11;2.30;97.90
55135;DHT22;41031;44.750;11.308;2023-12-07T03:17:40;2.30;97.90
55135;DHT22;41031;44.750;11.308;2023-12-07T03:20:07;2.30;97.90
55135;DHT22;41031;44.750;11.308;2023-12-07T03:22:35;2.40;97.90
55135;DHT22;41031;44.750;11.308;2023-12-07T03:25:03;2.30;97.90
55135;DHT22;41031;44.750;11.308;2023-12-07T03:27:30;2.30;97.80
55135;DHT22;41031;44.750;11.308;2023-12-07T03:29:57;2.30;97.80
55135;DHT22;41031;44.750;11.308;2023-12-07T03:32:25;2.30;97.80
55135;DHT22;41031;44.750;11.308;2023-12-07T03:34:52;2.30;97.80
55135;DHT22;41031;44.750;11.308;2023-12-07T03:37:19;2.30;97.80
55135;DHT22;41031;44.750;11.308;2023-12-07T03:39:46;2.30;97.90
55135;DHT22;41031;44.750;11.308;2023-12-07T03:42:13;2.30;97.90
55135;DHT22;41031;44.750;11.308;2023-12-07T03:45:00;2.30;98.00
55135;DHT22;41031;44.750;11.308;2023-12-07T03:47:27;2.30;97.90
55135;DHT22;41031;44.750;11.308;2023-12-07T03:49:54;2.30;97.90
55135;DHT22;41031;44.750;11.308;2023-12-07T03:52:22;2.30;97.90
55135;DHT22;41031;44.750;11.308;2023-12-07T03:54:49;2.30;98.00
55135;DHT22;41031;44.750;11.308;2023-12-07T03:57:16;2.30;98.00
55135;DHT22;41031;44.750;11.308;2023-12-07T03:59:43;2.30;98.00
55135;DHT22;41031;44.750;11.308;2023-12-07T04:02:11;2.30;98.00
55135;DHT22;41031;44.750;11.308;2023-12-07T04:04:38;2.30;98.00
55135;DHT22;41031;44.750;11.308;2023-12-07T04:07:05;2.30;98.00
55135;DHT22;41031;44.750;11.308;2023-12-07T04:09:32;2.30;98.00
55135;DHT22;41031;44.750;11.308;2023-12-07T04:11:59;2.30;98.00
55135;DHT22;41031;44.750;11.308;2023-12-07T04:14:26;2.30;98.00
55135;DHT22;41031;44.750;11.308;2023-12-07T04:16:54;2.30;97.90
55135;DHT22;41031;44.750;11.308;2023-12-07T04:19:21;2.30;97.90
55135;DHT22;41031;44.750;11.308;2023-12-07T04:21:48;2.30;98.00
55135;DHT22;41031;44.750;11.308;2023-12-07T04:24:15;2.20;98.00
55135;DHT22;41031;44.750;11.308;2023-12-07T04:26:42;2.30;98.00
55135;DHT22;41031;44.750;11.308;2023-12-07T04:29:10;2.20;97.90
55135;DHT22;41031;44.750;11.308;2023-12-07T04:31:37;2.20;97.90
55135;DHT22;41031;44.750;11.308;2023-12-07T04:34:04;2.20;97.90
55135;DHT22;41031;44.750;11.308;2023-12-07T04:36:31;2.20;97.90
55135;DHT22;41031;44.750;11.308;2023-12-07T04:38:58;2.10;97.90
55135;DHT22;41031;44.750;11.308;2023-12-07T04:41:25;2.10;97.90
55135;DHT22;41031;44.750;11.308;2023-12-07T04:43:52;2.10;97.90
55135;DHT22;41031;44.750;11.308;2023-12-07T04:46:19;2.10;98.00
55135;DHT22;41031;44.750;11.308;2023-12-07T04:48:46;2.10;98.00
55135;DHT22;41031;44.750;11.308;2023-12-07T04:51:13;2.10;98.00
55135;DHT22;41031;44.750;11.308;2023-12-07T04:53:40;2.20;98.10
55135;DHT22;41031;44.750;11.308;2023-12-07T04:56:08;2.20;98.10
55135;DHT22;41031;44.750;11.308;2023-12-07T04:58:35;2.20;98.10
55135;DHT22;41031;44.750;11.308;2023-12-07T05:01:02;2.20;98.10
55135;DHT22;41031;44.750;11.308;2023-12-07T05:03:31;2.20;98.10
55135;DHT22;41031;44.750;11.308;2023-12-07T05:05:58;2.20;98.10
55135;DHT22;41031;44.750;11.308;2023-12-07T05:08:26;2.20;98.10
55135;DHT22;41031;44.750;11.308;2023-12-07T05:10:53;2.20;98.10
55135;DHT22;41031;44.750;11.308;2023-12-07T05:13:20;2.20;98.10
55135;DHT22;41031;44.750;11.308;2023-12-07T05:15:47;2.20;98.10
55135;DHT22;41031;44.750;11.308;2023-12-07T05:18:15;2.20;98.10
55135;DHT22;41031;44.750;11.308;2023-12-07T05:20:42;2.20;98.10
55135;DHT22;41031;44.750;11.308;2023-12-07T05:23:10;2.20;98.10
55135;DHT22;41031;44.750;11.308;2023-12-07T05:25:37;2.20;98.10
55135;DHT22;41031;44.750;11.308;2023-12-07T05:28:04;2.20;98.10
55135;DHT22;41031;44.750;11.308;2023-12-07T05:30:31;2.10;98.10
55135;DHT22;41031;44.750;11.308;2023-12-07T05:32:58;2.10;98.10
55135;DHT22;41031;44.750;11.308;2023-12-07T05:35:26;2.10;98.10
55135;DHT22;41031;44.750;11.308;2023-12-07T05:37:53;2.20;98.10
55135;DHT22;41031;44.750;11.308;2023-12-07T05:40:20;2.10;98.10
55135;DHT22;41031;44.750;11.308;2023-12-07T05:42:50;2.10;98.10
55135;DHT22;41031;44.750;11.308;2023-12-07T05:45:18;2.10;98.00
55135;DHT22;41031;44.750;11.308;2023-12-07T05:47:45;2.10;98.00
55135;DHT22;41031;44.750;11.308;2023-12-07T05:50:12;2.10;98.00
55135;DHT22;41031;44.750;11.308;2023-12-07T05:52:40;2.10;98.00
55135;DHT22;41031;44.750;11.308;2023-12-07T05:55:07;2.10;98.00
55135;DHT22;41031;44.750;11.308;2023-12-07T05:57:34;2.10;98.10
55135;DHT22;41031;44.750;11.308;2023-12-07T06:00:01;2.10;98.10
55135;DHT22;41031;44.750;11.308;2023-12-07T06:02:37;2.10;98.00
55135;DHT22;41031;44.750;11.308;2023-12-07T06:05:05;2.20;98.00
55135;DHT22;41031;44.750;11.308;2023-12-07T06:07:32;2.10;98.00
55135;DHT22;41031;44.750;11.308;2023-12-07T06:09:59;2.10;98.00
55135;DHT22;41031;44.750;11.308;2023-12-07T06:12:26;2.10;98.00
55135;DHT22;41031;44.750;11.308;2023-12-07T06:14:56;2.10;98.00
55135;DHT22;41031;44.750;11.308;2023-12-07T06:17:23;2.10;98.00
55135;DHT22;41031;44.750;11.308;2023-12-07T06:19:51;2.10;98.10
55135;DHT22;41031;44.750;11.308;2023-12-07T06:22:18;2.20;98.10
55135;DHT22;41031;44.750;11.308;2023-12-07T06:24:45;2.20;98.10
55135;DHT22;41031;44.750;11.308;2023-12-07T06:27:12;2.20;98.20
55135;DHT22;41031;44.750;11.308;2023-12-07T06:29:39;2.30;98.20
55135;DHT22;41031;44.750;11.308;2023-12-07T06:32:06;2.30;98.20
55135;DHT22;41031;44.750;11.308;2023-12-07T06:34:33;2.40;98.20
55135;DHT22;41031;44.750;11.308;2023-12-07T06:37:01;2.40;98.20
55135;DHT22;41031;44.750;11.308;2023-12-07T06:39:28;2.40;98.10
55135;DHT22;41031;44.750;11.308;2023-12-07T06:41:55;2.40;98.10
55135;DHT22;41031;44.750;11.308;2023-12-07T06:44:22;2.40;98.10
55135;DHT22;41031;44.750;11.308;2023-12-07T06:46:49;2.40;97.90
55135;DHT22;41031;44.750;11.308;2023-12-07T06:49:16;2.40;97.80
55135;DHT22;41031;44.750;11.308;2023-12-07T06:51:43;2.40;97.70
55135;DHT22;41031;44.750;11.308;2023-12-07T06:54:10;2.30;97.70
55135;DHT22;41031;44.750;11.308;2023-12-07T06:56:37;2.30;97.60
55135;DHT22;41031;44.750;11.308;2023-12-07T06:59:04;2.30;97.70
55135;DHT22;41031;44.750;11.308;2023-12-07T07:01:31;2.30;97.70
55135;DHT22;41031;44.750;11.308;2023-12-07T07:04:00;2.30;97.70
55135;DHT22;41031;44.750;11.308;2023-12-07T07:06:27;2.30;97.70
55135;DHT22;41031;44.750;11.308;2023-12-07T07:08:54;2.30;97.70
55135;DHT22;41031;44.750;11.308;2023-12-07T07:11:25;2.30;97.60
55135;DHT22;41031;44.750;11.308;2023-12-07T07:13:53;2.30;97.60
55135;DHT22;41031;44.750;11.308;2023-12-07T07:16:20;2.30;97.60
55135;DHT22;41031;44.750;11.308;2023-12-07T07:18:47;2.30;97.60
55135;DHT22;41031;44.750;11.308;2023-12-07T07:21:14;2.40;97.60
55135;DHT22;41031;44.750;11.308;2023-12-07T07:23:41;2.40;97.60
55135;DHT22;41031;44.750;11.308;2023-12-07T07:26:09;2.50;97.60
55135;DHT22;41031;44.750;11.308;2023-12-07T07:28:36;2.50;97.50
55135;DHT22;41031;44.750;11.308;2023-12-07T07:31:03;2.50;97.50
55135;DHT22;41031;44.750;11.308;2023-12-07T07:33:31;2.60;97.50
55135;DHT22;41031;44.750;11.308;2023-12-07T07:35:59;2.60;97.50
55135;DHT22;41031;44.750;11.308;2023-12-07T07:38:27;2.70;97.40
55135;DHT22;41031;44.750;11.308;2023-12-07T07:40:54;2.70;97.30
55135;DHT22;41031;44.750;11.308;2023-12-07T07:43:21;2.80;97.30
55135;DHT22;41031;44.750;11.308;2023-12-07T07:45:48;2.80;97.30
55135;DHT22;41031;44.750;11.308;2023-12-07T07:48:16;2.80;97.20
55135;DHT22;41031;44.750;11.308;2023-12-07T07:50:43;2.90;97.20
55135;DHT22;41031;44.750;11.308;2023-12-07T07:53:10;3.00;97.20
55135;DHT22;41031;44.750;11.308;2023-12-07T07:55:37;3.10;97.20
55135;DHT22;41031;44.750;11.308;2023-12-07T07:58:04;3.10;97.20
55135;DHT22;41031;44.750;11.308;2023-12-07T08:00:31;3.20;97.10
55135;DHT22;41031;44.750;11.308;2023-12-07T08:03:00;3.30;97.10
55135;DHT22;41031;44.750;11.308;2023-12-07T08:05:27;3.40;97.10
55135;DHT22;41031;44.750;11.308;2023-12-07T08:07:54;3.50;97.00
55135;DHT22;41031;44.750;11.308;2023-12-07T08:10:21;3.50;96.90
55135;DHT22;41031;44.750;11.308;2023-12-07T08:12:48;3.60;96.90
55135;DHT22;41031;44.750;11.308;2023-12-07T08:15:15;3.70;96.80
55135;DHT22;41031;44.750;11.308;2023-12-07T08:17:42;3.80;96.80
55135;DHT22;41031;44.750;11.308;2023-12-07T08:20:10;3.80;96.70
55135;DHT22;41031;44.750;11.308;2023-12-07T08:22:38;3.90;96.60
55135;DHT22;41031;44.750;11.308;2023-12-07T08:25:06;4.00;96.50
55135;DHT22;41031;44.750;11.308;2023-12-07T08:27:38;4.00;96.70
55135;DHT22;41031;44.750;11.308;2023-12-07T08:30:06;4.10;96.40
55135;DHT22;41031;44.750;11.308;2023-12-07T08:32:36;4.20;96.30
55135;DHT22;41031;44.750;11.308;2023-12-07T08:35:04;4.20;96.20
55135;DHT22;41031;44.750;11.308;2023-12-07T08:37:32;4.30;96.20
55135;DHT22;41031;44.750;11.308;2023-12-07T08:40:00;4.40;96.20
55135;DHT22;41031;44.750;11.308;2023-12-07T08:42:27;4.40;96.10
55135;DHT22;41031;44.750;11.308;2023-12-07T08:44:55;4.50;96.10
55135;DHT22;41031;44.750;11.308;2023-12-07T08:47:22;4.60;96.00
55135;DHT22;41031;44.750;11.308;2023-12-07T08:49:49;4.70;95.90
55135;DHT22;41031;44.750;11.308;2023-12-07T08:52:18;4.80;95.80
55135;DHT22;41031;44.750;11.308;2023-12-07T08:55:01;4.90;95.80
55135;DHT22;41031;44.750;11.308;2023-12-07T08:57:28;5.00;95.50
55135;DHT22;41031;44.750;11.308;2023-12-07T08:59:55;5.10;95.20
55135;DHT22;41031;44.750;11.308;2023-12-07T09:02:22;5.10;94.70
55135;DHT22;41031;44.750;11.308;2023-12-07T09:05:08;5.10;94.30
55135;DHT22;41031;44.750;11.308;2023-12-07T09:07:36;5.20;94.10
55135;DHT22;41031;44.750;11.308;2023-12-07T09:10:04;5.20;94.10
55135;DHT22;41031;44.750;11.308;2023-12-07T09:12:31;5.20;94.10
55135;DHT22;41031;44.750;11.308;2023-12-07T09:15:05;5.30;94.10
55135;DHT22;41031;44.750;11.308;2023-12-07T09:17:35;5.40;94.20
55135;DHT22;41031;44.750;11.308;2023-12-07T09:20:04;5.40;94.20
55135;DHT22;41031;44.750;11.308;2023-12-07T09:22:31;5.50;94.20
55135;DHT22;41031;44.750;11.308;2023-12-07T09:25:04;5.60;94.10
55135;DHT22;41031;44.750;11.308;2023-12-07T09:27:32;5.60;94.00
55135;DHT22;41031;44.750;11.308;2023-12-07T09:30:01;5.70;94.00
55135;DHT22;41031;44.750;11.308;2023-12-07T09:32:28;5.70;94.00
55135;DHT22;41031;44.750;11.308;2023-12-07T09:35:04;5.80;94.00
55135;DHT22;41031;44.750;11.308;2023-12-07T09:37:31;5.90;93.90
55135;DHT22;41031;44.750;11.308;2023-12-07T09:39:58;5.90;93.50
55135;DHT22;41031;44.750;11.308;2023-12-07T09:42:26;5.90;93.30
55135;DHT22;41031;44.750;11.308;2023-12-07T09:45:02;6.00;93.10
55135;DHT22;41031;44.750;11.308;2023-12-07T09:47:31;6.00;93.10
55135;DHT22;41031;44.750;11.308;2023-12-07T09:50:05;6.00;93.10
55135;DHT22;41031;44.750;11.308;2023-12-07T09:52:32;6.10;93.00
55135;DHT22;41031;44.750;11.308;2023-12-07T09:55:04;6.20;92.90
55135;DHT22;41031;44.750;11.308;2023-12-07T09:57:32;6.30;92.90
55135;DHT22;41031;44.750;11.308;2023-12-07T10:00:01;6.40;92.90
55135;DHT22;41031;44.750;11.308;2023-12-07T10:02:36;6.40;92.60
55135;DHT22;41031;44.750;11.308;2023-12-07T10:05:11;6.50;92.30
55135;DHT22;41031;44.750;11.308;2023-12-07T10:07:41;6.50;92.10
55135;DHT22;41031;44.750;11.308;2023-12-07T10:10:09;6.50;91.90
55135;DHT22;41031;44.750;11.308;2023-12-07T10:13:00;6.50;91.90
55135;DHT22;41031;44.750;11.308;2023-12-07T10:15:27;6.60;92.10
55135;DHT22;41031;44.750;11.308;2023-12-07T10:17:57;6.60;92.00
55135;DHT22;41031;44.750;11.308;2023-12-07T10:20:27;6.80;92.20
55135;DHT22;41031;44.750;11.308;2023-12-07T10:23:08;6.80;92.20
55135;DHT22;41031;44.750;11.308;2023-12-07T10:25:38;6.90;92.00
55135;DHT22;41031;44.750;11.308;2023-12-07T10:28:06;7.00;91.90
55135;DHT22;41031;44.750;11.308;2023-12-07T10:30:36;7.00;91.80
55135;DHT22;41031;44.750;11.308;2023-12-07T10:33:06;7.00;91.80
55135;DHT22;41031;44.750;11.308;2023-12-07T10:35:41;7.10;91.90
55135;DHT22;41031;44.750;11.308;2023-12-07T10:38:10;7.20;91.80
55135;DHT22;41031;44.750;11.308;2023-12-07T10:40:37;7.20;91.80
55135;DHT22;41031;44.750;11.308;2023-12-07T10:43:06;7.30;91.90
55135;DHT22;41031;44.750;11.308;2023-12-07T10:45:34;7.40;92.00
55135;DHT22;41031;44.750;11.308;2023-12-07T10:48:09;7.50;92.00
55135;DHT22;41031;44.750;11.308;2023-12-07T10:50:42;7.60;91.90
55135;DHT22;41031;44.750;11.308;2023-12-07T10:53:36;7.60;91.80
55135;DHT22;41031;44.750;11.308;2023-12-07T10:56:10;7.70;91.80
55135;DHT22;41031;44.750;11.308;2023-12-07T10:58:41;7.80;92.00
55135;DHT22;41031;44.750;11.308;2023-12-07T11:01:09;7.80;92.00
55135;DHT22;41031;44.750;11.308;2023-12-07T11:03:38;7.90;92.10
55135;DHT22;41031;44.750;11.308;2023-12-07T11:06:08;7.90;91.80
55135;DHT22;41031;44.750;11.308;2023-12-07T11:08:43;8.00;91.60
55135;DHT22;41031;44.750;11.308;2023-12-07T11:14:02;8.10;91.50
55135;DHT22;41031;44.750;11.308;2023-12-07T11:16:31;8.10;91.50
55135;DHT22;41031;44.750;11.308;2023-12-07T11:18:59;8.20;91.70
55135;DHT22;41031;44.750;11.308;2023-12-07T11:21:27;8.30;91.60
55135;DHT22;41031;44.750;11.308;2023-12-07T11:23:54;8.30;91.50
55135;DHT22;41031;44.750;11.308;2023-12-07T11:26:24;8.40;91.00
55135;DHT22;41031;44.750;11.308;2023-12-07T11:28:53;8.40;91.00
55135;DHT22;41031;44.750;11.308;2023-12-07T11:31:21;8.50;91.20
55135;DHT22;41031;44.750;11.308;2023-12-07T11:33:49;8.50;91.10
55135;DHT22;41031;44.750;11.308;2023-12-07T11:36:16;8.60;90.90
55135;DHT22;41031;44.750;11.308;2023-12-07T11:39:16;8.60;90.40
55135;DHT22;41031;44.750;11.308;2023-12-07T11:41:55;8.70;90.40
55135;DHT22;41031;44.750;11.308;2023-12-07T11:44:37;8.80;90.50
55135;DHT22;41031;44.750;11.308;2023-12-07T11:47:06;8.90;90.60
55135;DHT22;41031;44.750;11.308;2023-12-07T11:49:33;9.00;90.60
55135;DHT22;41031;44.750;11.308;2023-12-07T11:52:21;9.10;90.40
55135;DHT22;41031;44.750;11.308;2023-12-07T11:54:50;9.20;90.30
55135;DHT22;41031;44.750;11.308;2023-12-07T11:57:18;9.30;90.50
55135;DHT22;41031;44.750;11.308;2023-12-07T11:59:45;9.30;90.10
55135;DHT22;41031;44.750;11.308;2023-12-07T12:02:13;9.30;89.40
55135;DHT22;41031;44.750;11.308;2023-12-07T12:04:41;9.40;89.40
55135;DHT22;41031;44.750;11.308;2023-12-07T12:07:09;9.40;89.60
55135;DHT22;41031;44.750;11.308;2023-12-07T12:09:36;9.40;89.10
55135;DHT22;41031;44.750;11.308;2023-12-07T12:12:04;9.40;89.20
55135;DHT22;41031;44.750;11.308;2023-12-07T12:14:31;9.50;89.00
55135;DHT22;41031;44.750;11.308;2023-12-07T12:16:58;9.50;88.40
55135;DHT22;41031;44.750;11.308;2023-12-07T12:19:26;9.50;88.40
55135;DHT22;41031;44.750;11.308;2023-12-07T12:22:03;9.50;88.20
55135;DHT22;41031;44.750;11.308;2023-12-07T12:24:35;9.60;88.40
55135;DHT22;41031;44.750;11.308;2023-12-07T12:27:04;9.60;88.30
55135;DHT22;41031;44.750;11.308;2023-12-07T12:29:32;9.70;88.50
55135;DHT22;41031;44.750;11.308;2023-12-07T12:32:02;9.80;88.70
55135;DHT22;41031;44.750;11.308;2023-12-07T12:34:32;9.80;88.00
55135;DHT22;41031;44.750;11.308;2023-12-07T12:37:00;9.90;87.70
55135;DHT22;41031;44.750;11.308;2023-12-07T12:39:29;9.90;87.40
55135;DHT22;41031;44.750;11.308;2023-12-07T12:42:00;9.90;87.20
55135;DHT22;41031;44.750;11.308;2023-12-07T12:44:29;9.90;87.00
55135;DHT22;41031;44.750;11.308;2023-12-07T12:47:05;9.90;86.60
55135;DHT22;41031;44.750;11.308;2023-12-07T12:49:37;9.90;87.00
55135;DHT22;41031;44.750;11.308;2023-12-07T12:52:05;9.90;87.10
55135;DHT22;41031;44.750;11.308;2023-12-07T12:54:36;9.90;87.20
55135;DHT22;41031;44.750;11.308;2023-12-07T12:57:06;9.90;87.10
55135;DHT22;41031;44.750;11.308;2023-12-07T12:59:34;9.80;86.70
55135;DHT22;41031;44.750;11.308;2023-12-07T13:02:02;9.80;87.20
55135;DHT22;41031;44.750;11.308;2023-12-07T13:04:33;9.90;87.50
55135;DHT22;41031;44.750;11.308;2023-12-07T13:07:04;9.90;87.40
55135;DHT22;41031;44.750;11.308;2023-12-07T13:09:31;9.90;87.00
55135;DHT22;41031;44.750;11.308;2023-12-07T13:11:59;9.90;86.60
55135;DHT22;41031;44.750;11.308;2023-12-07T13:14:31;9.90;86.30
55135;DHT22;41031;44.750;11.308;2023-12-07T13:17:00;9.80;86.20
55135;DHT22;41031;44.750;11.308;2023-12-07T13:19:27;9.80;86.20
55135;DHT22;41031;44.750;11.308;2023-12-07T13:21:54;9.80;86.50
55135;DHT22;41031;44.750;11.308;2023-12-07T13:24:21;9.80;86.80
55135;DHT22;41031;44.750;11.308;2023-12-07T13:26:48;9.80;87.10
55135;DHT22;41031;44.750;11.308;2023-12-07T13:29:15;9.80;87.00
55135;DHT22;41031;44.750;11.308;2023-12-07T13:31:54;9.80;86.70
55135;DHT22;41031;44.750;11.308;2023-12-07T13:34:21;9.80;86.80
55135;DHT22;41031;44.750;11.308;2023-12-07T13:36:50;9.80;87.00
55135;DHT22;41031;44.750;11.308;2023-12-07T13:39:17;9.70;87.20
55135;DHT22;41031;44.750;11.308;2023-12-07T13:41:57;9.70;87.20
55135;DHT22;41031;44.750;11.308;2023-12-07T13:44:24;9.60;87.30
55135;DHT22;41031;44.750;11.308;2023-12-07T13:46:55;9.60;87.50
55135;DHT22;41031;44.750;11.308;2023-12-07T13:49:24;9.50;88.00
55135;DHT22;41031;44.750;11.308;2023-12-07T13:52:01;9.50;88.40
55135;DHT22;41031;44.750;11.308;2023-12-07T13:54:35;9.50;88.70
55135;DHT22;41031;44.750;11.308;2023-12-07T13:57:05;9.40;88.90
55135;DHT22;41031;44.750;11.308;2023-12-07T13:59:35;9.40;89.20
55135;DHT22;41031;44.750;11.308;2023-12-07T14:02:04;9.40;89.40
55135;DHT22;41031;44.750;11.308;2023-12-07T14:04:32;9.40;89.20
55135;DHT22;41031;44.750;11.308;2023-12-07T14:07:14;9.40;89.30
55135;DHT22;41031;44.750;11.308;2023-12-07T14:09:43;9.40;89.60
55135;DHT22;41031;44.750;11.308;2023-12-07T14:12:23;9.30;89.60
55135;DHT22;41031;44.750;11.308;2023-12-07T14:14:51;9.20;89.60
55135;DHT22;41031;44.750;11.308;2023-12-07T14:17:18;9.20;89.70
55135;DHT22;41031;44.750;11.308;2023-12-07T14:19:47;9.10;89.70
55135;DHT22;41031;44.750;11.308;2023-12-07T14:22:18;9.10;89.80
55135;DHT22;41031;44.750;11.308;2023-12-07T14:24:45;9.10;90.00
55135;DHT22;41031;44.750;11.308;2023-12-07T14:27:15;9.00;90.00
55135;DHT22;41031;44.750;11.308;2023-12-07T14:29:42;9.00;90.10
55135;DHT22;41031;44.750;11.308;2023-12-07T14:32:09;8.90;90.20
55135;DHT22;41031;44.750;11.308;2023-12-07T14:34:37;8.90;90.20
55135;DHT22;41031;44.750;11.308;2023-12-07T14:37:06;8.80;90.30
55135;DHT22;41031;44.750;11.308;2023-12-07T14:39:38;8.80;90.40
55135;DHT22;41031;44.750;11.308;2023-12-07T14:42:06;8.80;90.50
55135;DHT22;41031;44.750;11.308;2023-12-07T14:44:33;8.80;90.60
55135;DHT22;41031;44.750;11.308;2023-12-07T14:47:01;8.70;90.70
55135;DHT22;41031;44.750;11.308;2023-12-07T14:49:28;8.70;90.90
55135;DHT22;41031;44.750;11.308;2023-12-07T14:51:56;8.60;90.90
55135;DHT22;41031;44.750;11.308;2023-12-07T14:54:25;8.60;91.00
55135;DHT22;41031;44.750;11.308;2023-12-07T14:56:56;8.60;91.20
55135;DHT22;41031;44.750;11.308;2023-12-07T14:59:24;8.50;91.30
55135;DHT22;41031;44.750;11.308;2023-12-07T15:01:51;8.50;91.40
55135;DHT22;41031;44.750;11.308;2023-12-07T15:04:19;8.40;91.50
55135;DHT22;41031;44.750;11.308;2023-12-07T15:06:59;8.40;91.60
55135;DHT22;41031;44.750;11.308;2023-12-07T15:09:26;8.30;91.70
55135;DHT22;41031;44.750;11.308;2023-12-07T15:11:53;8.30;91.90
55135;DHT22;41031;44.750;11.308;2023-12-07T15:14:21;8.20;91.90
55135;DHT22;41031;44.750;11.308;2023-12-07T15:17:03;8.10;92.00
55135;DHT22;41031;44.750;11.308;2023-12-07T15:19:32;8.10;92.10
55135;DHT22;41031;44.750;11.308;2023-12-07T15:22:00;8.00;92.20
55135;DHT22;41031;44.750;11.308;2023-12-07T15:24:27;8.00;92.30
55135;DHT22;41031;44.750;11.308;2023-12-07T15:27:03;7.90;92.40
55135;DHT22;41031;44.750;11.308;2023-12-07T15:29:31;7.90;92.40
55135;DHT22;41031;44.750;11.308;2023-12-07T15:32:02;7.80;92.50
55135;DHT22;41031;44.750;11.308;2023-12-07T15:34:29;7.70;92.50
55135;DHT22;41031;44.750;11.308;2023-12-07T15:37:06;7.70;92.70
55135;DHT22;41031;44.750;11.308;2023-12-07T15:39:33;7.60;92.70
55135;DHT22;41031;44.750;11.308;2023-12-07T15:42:00;7.50;92.80
55135;DHT22;41031;44.750;11.308;2023-12-07T15:44:30;7.50;92.90